sensor_id;sensor_type;location;lat;lon;timestamp;temperature;humidity
23719;DHT22;43322;52.230;5.702;2024-03-25T00:01:50;4.90;99.90
23719;DHT22;43322;52.230;5.702;2024-03-25T00:04:17;5.00;99.90
23719;DHT22;43322;52.230;5.702;2024-03-25T00:06:46;5.00;99.90
23719;DHT22;43322;52.230;5.702;2024-03-25T00:09:12;4.90;99.90
23719;DHT22;43322;52.230;5.702;2024-03-25T00:11:39;4.80;99.90
23719;DHT22;43322;52.230;5.702;2024-03-25T00:14:05;4.70;99.90
23719;DHT22;43322;52.230;5.702;2024-03-25T00:16:32;4.80;99.90
23719;DHT22;43322;52.230;5.702;2024-03-25T00:18:58;4.80;99.90
23719;DHT22;43322;52.230;5.702;2024-03-25T00:21:26;4.70;50.70
23719;DHT22;43322;52.230;5.702;2024-03-25T00:23:52;4.70;1.00
23719;DHT22;43322;52.230;5.702;2024-03-25T00:26:21;4.60;1.00
23719;DHT22;43322;52.230;5.702;2024-03-25T00:28:48;4.50;5.90
23719;DHT22;43322;52.230;5.702;2024-03-25T00:31:14;4.40;5.40
23719;DHT22;43322;52.230;5.702;2024-03-25T00:33:40;4.40;99.90
23719;DHT22;43322;52.230;5.702;2024-03-25T00:36:07;4.50;99.90
23719;DHT22;43322;52.230;5.702;2024-03-25T00:38:34;4.40;99.90
23719;DHT22;43322;52.230;5.702;2024-03-25T00:41:01;4.40;99.90
23719;DHT22;43322;52.230;5.702;2024-03-25T00:43:27;4.40;99.90
23719;DHT22;43322;52.230;5.702;2024-03-25T00:45:54;4.40;99.90
23719;DHT22;43322;52.230;5.702;2024-03-25T00:48:20;4.30;99.90
23719;DHT22;43322;52.230;5.702;2024-03-25T00:50:47;4.30;99.90
23719;DHT22;43322;52.230;5.702;2024-03-25T00:53:13;4.20;99.90
23719;DHT22;43322;52.230;5.702;2024-03-25T00:55:41;4.30;99.90
23719;DHT22;43322;52.230;5.702;2024-03-25T00:58:07;4.30;99.90
23719;DHT22;43322;52.230;5.702;2024-03-25T01:00:34;4.30;99.90
23719;DHT22;43322;52.230;5.702;2024-03-25T01:03:00;4.20;1.00
23719;DHT22;43322;52.230;5.702;2024-03-25T01:05:27;4.10;1.00
23719;DHT22;43322;52.230;5.702;2024-03-25T01:07:53;4.10;1.00
23719;DHT22;43322;52.230;5.702;2024-03-25T01:10:20;4.10;1.00
23719;DHT22;43322;52.230;5.702;2024-03-25T01:12:47;4.00;1.00
23719;DHT22;43322;52.230;5.702;2024-03-25T01:15:14;4.10;1.00
23719;DHT22;43322;52.230;5.702;2024-03-25T01:17:40;4.10;1.00
23719;DHT22;43322;52.230;5.702;2024-03-25T01:20:08;4.00;1.00
23719;DHT22;43322;52.230;5.702;2024-03-25T01:22:34;4.00;1.00
23719;DHT22;43322;52.230;5.702;2024-03-25T01:25:01;3.90;1.00
23719;DHT22;43322;52.230;5.702;2024-03-25T01:27:27;3.90;1.00
23719;DHT22;43322;52.230;5.702;2024-03-25T01:29:55;4.00;1.00
23719;DHT22;43322;52.230;5.702;2024-03-25T01:32:21;4.00;1.00
23719;DHT22;43322;52.230;5.702;2024-03-25T01:34:48;4.00;1.00
23719;DHT22;43322;52.230;5.702;2024-03-25T01:37:13;4.00;1.00
23719;DHT22;43322;52.230;5.702;2024-03-25T01:39:40;4.10;1.00
23719;DHT22;43322;52.230;5.702;2024-03-25T01:42:06;4.20;1.00
23719;DHT22;43322;52.230;5.702;2024-03-25T01:44:33;4.20;1.00
23719;DHT22;43322;52.230;5.702;2024-03-25T01:47:01;4.20;1.00
23719;DHT22;43322;52.230;5.702;2024-03-25T01:49:27;4.30;94.50
23719;DHT22;43322;52.230;5.702;2024-03-25T01:51:54;4.20;38.40
23719;DHT22;43322;52.230;5.702;2024-03-25T01:54:20;4.20;99.90
23719;DHT22;43322;52.230;5.702;2024-03-25T01:56:47;4.30;99.90
23719;DHT22;43322;52.230;5.702;2024-03-25T01:59:15;4.20;91.90
23719;DHT22;43322;52.230;5.702;2024-03-25T02:01:43;4.10;99.90
23719;DHT22;43322;52.230;5.702;2024-03-25T02:04:10;4.10;99.90
23719;DHT22;43322;52.230;5.702;2024-03-25T02:06:40;4.10;99.90
23719;DHT22;43322;52.230;5.702;2024-03-25T02:09:06;4.20;1.00
23719;DHT22;43322;52.230;5.702;2024-03-25T02:11:33;4.30;1.00
23719;DHT22;43322;52.230;5.702;2024-03-25T02:13:59;4.20;1.00
23719;DHT22;43322;52.230;5.702;2024-03-25T02:16:26;4.30;1.00
23719;DHT22;43322;52.230;5.702;2024-03-25T02:18:52;4.20;1.00
23719;DHT22;43322;52.230;5.702;2024-03-25T02:21:20;4.30;1.00
23719;DHT22;43322;52.230;5.702;2024-03-25T02:23:47;4.20;1.00
23719;DHT22;43322;52.230;5.702;2024-03-25T02:26:16;4.20;1.00
23719;DHT22;43322;52.230;5.702;2024-03-25T02:28:43;4.20;99.90
23719;DHT22;43322;52.230;5.702;2024-03-25T02:31:09;4.20;99.90
23719;DHT22;43322;52.230;5.702;2024-03-25T02:33:35;4.20;99.90
23719;DHT22;43322;52.230;5.702;2024-03-25T02:36:02;4.20;99.90
23719;DHT22;43322;52.230;5.702;2024-03-25T02:38:28;4.20;99.90
23719;DHT22;43322;52.230;5.702;2024-03-25T02:40:55;4.20;99.90
23719;DHT22;43322;52.230;5.702;2024-03-25T02:43:23;4.30;99.90
23719;DHT22;43322;52.230;5.702;2024-03-25T02:45:50;4.30;99.90
23719;DHT22;43322;52.230;5.702;2024-03-25T02:48:16;4.30;99.90
23719;DHT22;43322;52.230;5.702;2024-03-25T02:50:43;4.40;99.90
23719;DHT22;43322;52.230;5.702;2024-03-25T02:53:09;4.40;99.90
23719;DHT22;43322;52.230;5.702;2024-03-25T02:55:35;4.40;99.90
23719;DHT22;43322;52.230;5.702;2024-03-25T02:58:02;4.40;99.90
23719;DHT22;43322;52.230;5.702;2024-03-25T03:00:30;4.40;99.90
23719;DHT22;43322;52.230;5.702;2024-03-25T03:02:56;4.40;99.90
23719;DHT22;43322;52.230;5.702;2024-03-25T03:05:22;4.50;99.90
23719;DHT22;43322;52.230;5.702;2024-03-25T03:07:48;4.50;99.90
23719;DHT22;43322;52.230;5.702;2024-03-25T03:10:15;4.40;99.90
23719;DHT22;43322;52.230;5.702;2024-03-25T03:12:41;4.40;99.90
23719;DHT22;43322;52.230;5.702;2024-03-25T03:15:08;4.40;99.90
23719;DHT22;43322;52.230;5.702;2024-03-25T03:17:36;4.60;1.00
23719;DHT22;43322;52.230;5.702;2024-03-25T03:20:03;4.50;99.90
23719;DHT22;43322;52.230;5.702;2024-03-25T03:22:32;4.60;99.90
23719;DHT22;43322;52.230;5.702;2024-03-25T03:24:58;4.60;99.90
23719;DHT22;43322;52.230;5.702;2024-03-25T03:27:24;4.50;99.90
23719;DHT22;43322;52.230;5.702;2024-03-25T03:29:50;4.60;99.90
23719;DHT22;43322;52.230;5.702;2024-03-25T03:32:17;4.60;99.90
23719;DHT22;43322;52.230;5.702;2024-03-25T03:34:44;4.60;99.90
23719;DHT22;43322;52.230;5.702;2024-03-25T03:37:11;4.50;99.90
23719;DHT22;43322;52.230;5.702;2024-03-25T03:39:37;4.50;99.90
23719;DHT22;43322;52.230;5.702;2024-03-25T03:42:04;4.50;1.00
23719;DHT22;43322;52.230;5.702;2024-03-25T03:44:30;4.50;1.00
23719;DHT22;43322;52.230;5.702;2024-03-25T03:46:56;4.50;1.00
23719;DHT22;43322;52.230;5.702;2024-03-25T03:49:22;4.50;1.00
23719;DHT22;43322;52.230;5.702;2024-03-25T03:51:50;4.40;1.00
23719;DHT22;43322;52.230;5.702;2024-03-25T03:54:16;4.40;1.00
23719;DHT22;43322;52.230;5.702;2024-03-25T03:56:43;4.40;1.00
23719;DHT22;43322;52.230;5.702;2024-03-25T03:59:09;4.40;1.00
23719;DHT22;43322;52.230;5.702;2024-03-25T04:01:35;4.20;1.00
23719;DHT22;43322;52.230;5.702;2024-03-25T04:04:01;4.60;1.00
23719;DHT22;43322;52.230;5.702;2024-03-25T04:06:28;4.00;99.90
23719;DHT22;43322;52.230;5.702;2024-03-25T04:08:55;3.80;99.90
23719;DHT22;43322;52.230;5.702;2024-03-25T04:11:22;3.80;1.00
23719;DHT22;43322;52.230;5.702;2024-03-25T04:13:48;3.70;1.00
23719;DHT22;43322;52.230;5.702;2024-03-25T04:16:15;3.50;99.90
23719;DHT22;43322;52.230;5.702;2024-03-25T04:18:41;3.40;99.90
23719;DHT22;43322;52.230;5.702;2024-03-25T04:21:11;3.50;1.00
23719;DHT22;43322;52.230;5.702;2024-03-25T04:23:37;3.50;1.00
23719;DHT22;43322;52.230;5.702;2024-03-25T04:26:06;3.40;1.00
23719;DHT22;43322;52.230;5.702;2024-03-25T04:28:34;3.30;1.00
23719;DHT22;43322;52.230;5.702;2024-03-25T04:31:01;3.30;1.00
23719;DHT22;43322;52.230;5.702;2024-03-25T04:33:27;3.20;1.00
23719;DHT22;43322;52.230;5.702;2024-03-25T04:35:53;3.10;1.00
23719;DHT22;43322;52.230;5.702;2024-03-25T04:38:20;3.10;1.00
23719;DHT22;43322;52.230;5.702;2024-03-25T04:40:47;3.10;1.00
23719;DHT22;43322;52.230;5.702;2024-03-25T04:43:14;3.10;1.00
23719;DHT22;43322;52.230;5.702;2024-03-25T04:45:40;3.10;1.00
23719;DHT22;43322;52.230;5.702;2024-03-25T04:48:07;3.10;1.00
23719;DHT22;43322;52.230;5.702;2024-03-25T04:50:33;3.00;1.00
23719;DHT22;43322;52.230;5.702;2024-03-25T04:52:59;3.00;1.00
23719;DHT22;43322;52.230;5.702;2024-03-25T04:55:25;2.90;1.00
23719;DHT22;43322;52.230;5.702;2024-03-25T04:57:51;2.80;1.00
23719;DHT22;43322;52.230;5.702;2024-03-25T05:00:19;3.00;1.00
23719;DHT22;43322;52.230;5.702;2024-03-25T05:02:45;2.80;1.00
23719;DHT22;43322;52.230;5.702;2024-03-25T05:05:10;2.80;1.00
23719;DHT22;43322;52.230;5.702;2024-03-25T05:07:36;2.80;1.00
23719;DHT22;43322;52.230;5.702;2024-03-25T05:10:03;2.80;1.00
23719;DHT22;43322;52.230;5.702;2024-03-25T05:12:29;2.70;1.00
23719;DHT22;43322;52.230;5.702;2024-03-25T05:14:55;2.60;1.00
23719;DHT22;43322;52.230;5.702;2024-03-25T05:17:22;2.60;1.00
23719;DHT22;43322;52.230;5.702;2024-03-25T05:19:48;2.70;1.00
23719;DHT22;43322;52.230;5.702;2024-03-25T05:22:14;2.90;1.00
23719;DHT22;43322;52.230;5.702;2024-03-25T05:24:40;2.80;1.00
23719;DHT22;43322;52.230;5.702;2024-03-25T05:27:06;2.80;1.00
23719;DHT22;43322;52.230;5.702;2024-03-25T05:29:32;2.70;1.00
23719;DHT22;43322;52.230;5.702;2024-03-25T05:31:59;2.60;99.90
23719;DHT22;43322;52.230;5.702;2024-03-25T05:34:28;2.60;1.00
23719;DHT22;43322;52.230;5.702;2024-03-25T05:36:54;2.50;1.00
23719;DHT22;43322;52.230;5.702;2024-03-25T05:39:20;2.60;1.00
23719;DHT22;43322;52.230;5.702;2024-03-25T05:41:46;2.60;1.00
23719;DHT22;43322;52.230;5.702;2024-03-25T05:44:12;2.50;1.00
23719;DHT22;43322;52.230;5.702;2024-03-25T05:46:38;2.60;1.00
23719;DHT22;43322;52.230;5.702;2024-03-25T05:49:04;2.60;1.00
23719;DHT22;43322;52.230;5.702;2024-03-25T05:51:32;2.70;1.00
23719;DHT22;43322;52.230;5.702;2024-03-25T05:53:58;2.70;1.00
23719;DHT22;43322;52.230;5.702;2024-03-25T05:56:24;2.80;99.90
23719;DHT22;43322;52.230;5.702;2024-03-25T05:58:50;2.80;99.90
23719;DHT22;43322;52.230;5.702;2024-03-25T06:01:16;2.80;99.90
23719;DHT22;43322;52.230;5.702;2024-03-25T06:03:42;2.80;99.90
23719;DHT22;43322;52.230;5.702;2024-03-25T06:06:08;2.80;99.90
23719;DHT22;43322;52.230;5.702;2024-03-25T06:08:35;2.90;99.90
23719;DHT22;43322;52.230;5.702;2024-03-25T06:11:01;3.00;99.90
23719;DHT22;43322;52.230;5.702;2024-03-25T06:13:27;2.90;99.90
23719;DHT22;43322;52.230;5.702;2024-03-25T06:15:53;2.90;99.90
23719;DHT22;43322;52.230;5.702;2024-03-25T06:18:19;3.00;99.90
23719;DHT22;43322;52.230;5.702;2024-03-25T06:20:45;3.00;99.90
23719;DHT22;43322;52.230;5.702;2024-03-25T06:23:22;3.10;99.90
23719;DHT22;43322;52.230;5.702;2024-03-25T06:25:49;3.20;1.00
23719;DHT22;43322;52.230;5.702;2024-03-25T06:28:15;3.30;1.00
23719;DHT22;43322;52.230;5.702;2024-03-25T06:30:41;3.50;1.00
23719;DHT22;43322;52.230;5.702;2024-03-25T06:33:26;3.80;1.00
23719;DHT22;43322;52.230;5.702;2024-03-25T06:36:10;3.70;1.00
23719;DHT22;43322;52.230;5.702;2024-03-25T06:38:36;3.80;1.00
23719;DHT22;43322;52.230;5.702;2024-03-25T06:41:03;3.80;1.00
23719;DHT22;43322;52.230;5.702;2024-03-25T06:43:29;3.90;1.00
23719;DHT22;43322;52.230;5.702;2024-03-25T06:45:55;4.00;1.00
23719;DHT22;43322;52.230;5.702;2024-03-25T06:48:21;4.10;1.00
23719;DHT22;43322;52.230;5.702;2024-03-25T06:50:54;4.10;1.00
23719;DHT22;43322;52.230;5.702;2024-03-25T06:53:20;4.10;1.00
23719;DHT22;43322;52.230;5.702;2024-03-25T06:55:53;4.20;1.00
23719;DHT22;43322;52.230;5.702;2024-03-25T06:58:22;4.20;1.00
23719;DHT22;43322;52.230;5.702;2024-03-25T07:00:48;4.20;1.00
23719;DHT22;43322;52.230;5.702;2024-03-25T07:03:15;4.30;1.00
23719;DHT22;43322;52.230;5.702;2024-03-25T07:05:41;4.40;1.00
23719;DHT22;43322;52.230;5.702;2024-03-25T07:08:07;4.40;1.00
23719;DHT22;43322;52.230;5.702;2024-03-25T07:10:33;4.50;1.00
23719;DHT22;43322;52.230;5.702;2024-03-25T07:12:59;4.60;1.00
23719;DHT22;43322;52.230;5.702;2024-03-25T07:15:26;4.60;1.00
23719;DHT22;43322;52.230;5.702;2024-03-25T07:17:52;4.70;1.00
23719;DHT22;43322;52.230;5.702;2024-03-25T07:20:18;4.80;17.20
23719;DHT22;43322;52.230;5.702;2024-03-25T07:22:45;4.80;32.80
23719;DHT22;43322;52.230;5.702;2024-03-25T07:25:11;4.90;58.50
23719;DHT22;43322;52.230;5.702;2024-03-25T07:27:36;5.00;83.50
23719;DHT22;43322;52.230;5.702;2024-03-25T07:30:03;5.20;99.90
23719;DHT22;43322;52.230;5.702;2024-03-25T07:32:30;5.30;99.90
23719;DHT22;43322;52.230;5.702;2024-03-25T07:34:56;5.60;99.90
23719;DHT22;43322;52.230;5.702;2024-03-25T07:37:22;5.70;99.90
23719;DHT22;43322;52.230;5.702;2024-03-25T07:39:48;5.80;51.80
23719;DHT22;43322;52.230;5.702;2024-03-25T07:42:14;5.80;1.00
23719;DHT22;43322;52.230;5.702;2024-03-25T07:44:40;5.80;1.00
23719;DHT22;43322;52.230;5.702;2024-03-25T07:47:06;5.90;1.00
23719;DHT22;43322;52.230;5.702;2024-03-25T07:49:33;6.10;1.00
23719;DHT22;43322;52.230;5.702;2024-03-25T07:51:59;6.50;1.00
23719;DHT22;43322;52.230;5.702;2024-03-25T07:54:25;6.60;99.90
23719;DHT22;43322;52.230;5.702;2024-03-25T07:56:51;7.00;1.00
23719;DHT22;43322;52.230;5.702;2024-03-25T07:59:17;7.50;1.00
23719;DHT22;43322;52.230;5.702;2024-03-25T08:01:43;8.10;1.00
23719;DHT22;43322;52.230;5.702;2024-03-25T08:04:09;8.60;1.00
23719;DHT22;43322;52.230;5.702;2024-03-25T08:06:36;9.00;1.00
23719;DHT22;43322;52.230;5.702;2024-03-25T08:09:02;9.20;1.00
23719;DHT22;43322;52.230;5.702;2024-03-25T08:11:29;9.40;1.00
23719;DHT22;43322;52.230;5.702;2024-03-25T08:13:55;9.20;1.00
23719;DHT22;43322;52.230;5.702;2024-03-25T08:16:21;9.00;99.90
23719;DHT22;43322;52.230;5.702;2024-03-25T08:18:46;9.10;1.00
23719;DHT22;43322;52.230;5.702;2024-03-25T08:21:12;9.30;1.00
23719;DHT22;43322;52.230;5.702;2024-03-25T08:23:40;9.60;99.90
23719;DHT22;43322;52.230;5.702;2024-03-25T08:26:06;9.90;1.00
23719;DHT22;43322;52.230;5.702;2024-03-25T08:28:32;10.20;44.20
23719;DHT22;43322;52.230;5.702;2024-03-25T08:30:57;10.30;99.90
23719;DHT22;43322;52.230;5.702;2024-03-25T08:33:23;10.30;1.00
23719;DHT22;43322;52.230;5.702;2024-03-25T08:35:49;10.20;1.00
23719;DHT22;43322;52.230;5.702;2024-03-25T08:38:15;10.20;1.00
23719;DHT22;43322;52.230;5.702;2024-03-25T08:40:43;10.40;1.00
23719;DHT22;43322;52.230;5.702;2024-03-25T08:43:08;10.50;99.90
23719;DHT22;43322;52.230;5.702;2024-03-25T08:45:34;10.30;1.00
23719;DHT22;43322;52.230;5.702;2024-03-25T08:48:00;10.10;99.90
23719;DHT22;43322;52.230;5.702;2024-03-25T08:50:26;10.50;99.90
23719;DHT22;43322;52.230;5.702;2024-03-25T08:52:52;10.90;99.90
23719;DHT22;43322;52.230;5.702;2024-03-25T08:55:18;11.10;1.00
23719;DHT22;43322;52.230;5.702;2024-03-25T08:57:45;10.90;99.90
23719;DHT22;43322;52.230;5.702;2024-03-25T09:00:12;10.60;99.90
23719;DHT22;43322;52.230;5.702;2024-03-25T09:02:38;10.10;99.90
23719;DHT22;43322;52.230;5.702;2024-03-25T09:05:05;9.90;1.00
23719;DHT22;43322;52.230;5.702;2024-03-25T09:07:31;9.70;1.00
23719;DHT22;43322;52.230;5.702;2024-03-25T09:09:57;9.60;1.00
23719;DHT22;43322;52.230;5.702;2024-03-25T09:12:41;9.40;23.10
23719;DHT22;43322;52.230;5.702;2024-03-25T09:15:09;9.50;99.90
23719;DHT22;43322;52.230;5.702;2024-03-25T09:17:35;10.40;99.90
23719;DHT22;43322;52.230;5.702;2024-03-25T09:20:01;11.30;1.00
23719;DHT22;43322;52.230;5.702;2024-03-25T09:22:27;11.20;1.00
23719;DHT22;43322;52.230;5.702;2024-03-25T09:24:53;11.50;1.00
23719;DHT22;43322;52.230;5.702;2024-03-25T09:27:19;11.60;1.00
23719;DHT22;43322;52.230;5.702;2024-03-25T09:29:45;11.00;1.00
23719;DHT22;43322;52.230;5.702;2024-03-25T09:32:12;10.50;1.00
23719;DHT22;43322;52.230;5.702;2024-03-25T09:34:38;10.00;1.00
23719;DHT22;43322;52.230;5.702;2024-03-25T09:37:04;9.80;1.00
23719;DHT22;43322;52.230;5.702;2024-03-25T09:39:30;10.20;1.00
23719;DHT22;43322;52.230;5.702;2024-03-25T09:41:57;10.60;99.90
23719;DHT22;43322;52.230;5.702;2024-03-25T09:44:28;10.90;1.00
23719;DHT22;43322;52.230;5.702;2024-03-25T09:46:56;10.90;1.00
23719;DHT22;43322;52.230;5.702;2024-03-25T09:49:23;10.90;99.90
23719;DHT22;43322;52.230;5.702;2024-03-25T09:51:51;10.80;1.00
23719;DHT22;43322;52.230;5.702;2024-03-25T09:54:17;10.80;99.90
23719;DHT22;43322;52.230;5.702;2024-03-25T09:56:43;10.50;99.90
23719;DHT22;43322;52.230;5.702;2024-03-25T09:59:09;10.20;1.00
23719;DHT22;43322;52.230;5.702;2024-03-25T10:01:35;10.20;99.90
23719;DHT22;43322;52.230;5.702;2024-03-25T10:04:01;10.20;1.00
23719;DHT22;43322;52.230;5.702;2024-03-25T10:06:28;9.90;1.00
23719;DHT22;43322;52.230;5.702;2024-03-25T10:08:54;9.90;1.00
23719;DHT22;43322;52.230;5.702;2024-03-25T10:11:20;9.90;1.00
23719;DHT22;43322;52.230;5.702;2024-03-25T10:13:46;10.20;1.00
23719;DHT22;43322;52.230;5.702;2024-03-25T10:16:12;10.60;1.00
23719;DHT22;43322;52.230;5.702;2024-03-25T10:18:38;10.90;1.00
23719;DHT22;43322;52.230;5.702;2024-03-25T10:21:04;10.70;99.90
23719;DHT22;43322;52.230;5.702;2024-03-25T10:23:31;10.50;99.90
23719;DHT22;43322;52.230;5.702;2024-03-25T10:25:57;10.50;1.00
23719;DHT22;43322;52.230;5.702;2024-03-25T10:28:23;10.90;1.00
23719;DHT22;43322;52.230;5.702;2024-03-25T10:30:49;11.30;1.00
23719;DHT22;43322;52.230;5.702;2024-03-25T10:33:15;11.50;1.00
23719;DHT22;43322;52.230;5.702;2024-03-25T10:35:45;11.40;99.90
23719;DHT22;43322;52.230;5.702;2024-03-25T10:38:14;11.10;99.90
23719;DHT22;43322;52.230;5.702;2024-03-25T10:40:44;11.20;99.90
23719;DHT22;43322;52.230;5.702;2024-03-25T10:43:11;11.30;99.90
23719;DHT22;43322;52.230;5.702;2024-03-25T10:45:40;11.50;99.90
23719;DHT22;43322;52.230;5.702;2024-03-25T10:48:11;11.50;99.90
23719;DHT22;43322;52.230;5.702;2024-03-25T10:50:38;11.80;99.90
23719;DHT22;43322;52.230;5.702;2024-03-25T10:53:05;11.90;99.90
23719;DHT22;43322;52.230;5.702;2024-03-25T10:55:32;12.00;99.90
23719;DHT22;43322;52.230;5.702;2024-03-25T10:58:02;12.00;99.90
23719;DHT22;43322;52.230;5.702;2024-03-25T11:00:30;12.00;99.90
23719;DHT22;43322;52.230;5.702;2024-03-25T11:02:56;12.30;1.00
23719;DHT22;43322;52.230;5.702;2024-03-25T11:05:23;12.40;99.90
23719;DHT22;43322;52.230;5.702;2024-03-25T11:07:49;13.00;99.90
23719;DHT22;43322;52.230;5.702;2024-03-25T11:10:16;13.40;99.90
23719;DHT22;43322;52.230;5.702;2024-03-25T11:12:42;13.50;99.90
23719;DHT22;43322;52.230;5.702;2024-03-25T11:15:09;14.00;99.90
23719;DHT22;43322;52.230;5.702;2024-03-25T11:17:36;14.60;99.90
23719;DHT22;43322;52.230;5.702;2024-03-25T11:20:13;15.20;99.90
23719;DHT22;43322;52.230;5.702;2024-03-25T11:22:48;16.00;99.90
23719;DHT22;43322;52.230;5.702;2024-03-25T11:25:14;16.40;99.90
23719;DHT22;43322;52.230;5.702;2024-03-25T11:27:43;16.00;99.90
23719;DHT22;43322;52.230;5.702;2024-03-25T11:30:10;15.40;99.90
23719;DHT22;43322;52.230;5.702;2024-03-25T11:32:44;15.80;99.90
23719;DHT22;43322;52.230;5.702;2024-03-25T11:35:10;15.90;99.90
23719;DHT22;43322;52.230;5.702;2024-03-25T11:37:40;16.30;99.90
23719;DHT22;43322;52.230;5.702;2024-03-25T11:40:07;16.60;99.90
23719;DHT22;43322;52.230;5.702;2024-03-25T11:42:33;16.90;99.90
23719;DHT22;43322;52.230;5.702;2024-03-25T11:45:00;16.90;99.90
23719;DHT22;43322;52.230;5.702;2024-03-25T11:47:27;17.50;99.90
23719;DHT22;43322;52.230;5.702;2024-03-25T11:49:53;18.40;99.90
23719;DHT22;43322;52.230;5.702;2024-03-25T11:52:19;18.70;99.90
23719;DHT22;43322;52.230;5.702;2024-03-25T11:54:53;18.40;99.90
23719;DHT22;43322;52.230;5.702;2024-03-25T11:57:19;18.00;99.90
23719;DHT22;43322;52.230;5.702;2024-03-25T11:59:46;18.10;99.90
23719;DHT22;43322;52.230;5.702;2024-03-25T12:02:12;17.50;99.90
23719;DHT22;43322;52.230;5.702;2024-03-25T12:04:42;17.30;99.90
23719;DHT22;43322;52.230;5.702;2024-03-25T12:07:10;17.80;99.90
23719;DHT22;43322;52.230;5.702;2024-03-25T12:09:35;18.20;99.90
23719;DHT22;43322;52.230;5.702;2024-03-25T12:12:20;17.80;99.90
23719;DHT22;43322;52.230;5.702;2024-03-25T12:14:46;16.80;99.90
23719;DHT22;43322;52.230;5.702;2024-03-25T12:17:12;15.80;99.90
23719;DHT22;43322;52.230;5.702;2024-03-25T12:19:40;14.90;99.90
23719;DHT22;43322;52.230;5.702;2024-03-25T12:22:06;14.30;99.90
23719;DHT22;43322;52.230;5.702;2024-03-25T12:24:33;14.30;99.90
23719;DHT22;43322;52.230;5.702;2024-03-25T12:26:59;15.40;99.90
23719;DHT22;43322;52.230;5.702;2024-03-25T12:29:25;16.70;99.90
23719;DHT22;43322;52.230;5.702;2024-03-25T12:31:54;17.80;99.90
23719;DHT22;43322;52.230;5.702;2024-03-25T12:34:20;18.60;99.90
23719;DHT22;43322;52.230;5.702;2024-03-25T12:36:48;18.80;99.90
23719;DHT22;43322;52.230;5.702;2024-03-25T12:39:17;19.50;99.90
23719;DHT22;43322;52.230;5.702;2024-03-25T12:41:44;19.60;99.90
23719;DHT22;43322;52.230;5.702;2024-03-25T12:44:12;19.80;99.90
23719;DHT22;43322;52.230;5.702;2024-03-25T12:46:38;19.90;99.90
23719;DHT22;43322;52.230;5.702;2024-03-25T12:49:04;20.20;99.90
23719;DHT22;43322;52.230;5.702;2024-03-25T12:51:30;20.50;99.90
23719;DHT22;43322;52.230;5.702;2024-03-25T12:53:57;20.40;99.90
23719;DHT22;43322;52.230;5.702;2024-03-25T12:56:24;20.60;99.90
23719;DHT22;43322;52.230;5.702;2024-03-25T12:58:50;20.70;99.90
23719;DHT22;43322;52.230;5.702;2024-03-25T13:01:16;21.20;99.90
23719;DHT22;43322;52.230;5.702;2024-03-25T13:03:42;21.40;99.90
23719;DHT22;43322;52.230;5.702;2024-03-25T13:06:08;21.40;99.90
23719;DHT22;43322;52.230;5.702;2024-03-25T13:08:34;21.20;99.90
23719;DHT22;43322;52.230;5.702;2024-03-25T13:11:01;20.60;99.90
23719;DHT22;43322;52.230;5.702;2024-03-25T13:13:27;20.80;99.90
23719;DHT22;43322;52.230;5.702;2024-03-25T13:15:53;20.70;99.90
23719;DHT22;43322;52.230;5.702;2024-03-25T13:18:19;20.40;99.90
23719;DHT22;43322;52.230;5.702;2024-03-25T13:20:45;20.30;99.90
23719;DHT22;43322;52.230;5.702;2024-03-25T13:23:11;20.30;99.90
23719;DHT22;43322;52.230;5.702;2024-03-25T13:25:37;20.10;99.90
23719;DHT22;43322;52.230;5.702;2024-03-25T13:28:04;19.10;99.90
23719;DHT22;43322;52.230;5.702;2024-03-25T13:30:31;19.00;99.90
23719;DHT22;43322;52.230;5.702;2024-03-25T13:32:58;18.60;99.90
23719;DHT22;43322;52.230;5.702;2024-03-25T13:35:24;18.20;99.90
23719;DHT22;43322;52.230;5.702;2024-03-25T13:37:49;17.70;99.90
23719;DHT22;43322;52.230;5.702;2024-03-25T13:40:15;17.50;99.90
23719;DHT22;43322;52.230;5.702;2024-03-25T13:42:41;17.90;99.90
23719;DHT22;43322;52.230;5.702;2024-03-25T13:45:09;18.20;99.90
23719;DHT22;43322;52.230;5.702;2024-03-25T13:47:35;18.60;99.90
23719;DHT22;43322;52.230;5.702;2024-03-25T13:50:02;18.80;99.90
23719;DHT22;43322;52.230;5.702;2024-03-25T13:52:27;18.70;99.90
23719;DHT22;43322;52.230;5.702;2024-03-25T13:54:53;18.30;99.90
23719;DHT22;43322;52.230;5.702;2024-03-25T13:57:19;17.70;99.90
23719;DHT22;43322;52.230;5.702;2024-03-25T13:59:45;17.30;99.90
23719;DHT22;43322;52.230;5.702;2024-03-25T14:02:12;17.40;99.90
23719;DHT22;43322;52.230;5.702;2024-03-25T14:04:38;17.10;99.90
23719;DHT22;43322;52.230;5.702;2024-03-25T14:07:04;17.10;99.90
23719;DHT22;43322;52.230;5.702;2024-03-25T14:09:30;17.00;99.90
23719;DHT22;43322;52.230;5.702;2024-03-25T14:11:56;17.10;99.90
23719;DHT22;43322;52.230;5.702;2024-03-25T14:14:22;17.00;99.90
23719;DHT22;43322;52.230;5.702;2024-03-25T14:16:48;17.00;99.90
23719;DHT22;43322;52.230;5.702;2024-03-25T14:19:15;16.90;99.90
23719;DHT22;43322;52.230;5.702;2024-03-25T14:21:41;16.90;99.90
23719;DHT22;43322;52.230;5.702;2024-03-25T14:24:07;16.90;99.90
23719;DHT22;43322;52.230;5.702;2024-03-25T14:26:33;16.50;99.90
23719;DHT22;43322;52.230;5.702;2024-03-25T14:28:59;16.20;99.90
23719;DHT22;43322;52.230;5.702;2024-03-25T14:31:25;16.20;99.90
23719;DHT22;43322;52.230;5.702;2024-03-25T14:33:51;16.10;99.90
23719;DHT22;43322;52.230;5.702;2024-03-25T14:36:18;16.00;99.90
23719;DHT22;43322;52.230;5.702;2024-03-25T14:38:44;15.80;99.90
23719;DHT22;43322;52.230;5.702;2024-03-25T14:41:11;15.40;99.90
23719;DHT22;43322;52.230;5.702;2024-03-25T14:43:38;15.20;99.90
23719;DHT22;43322;52.230;5.702;2024-03-25T14:46:04;15.10;99.90
23719;DHT22;43322;52.230;5.702;2024-03-25T14:48:29;15.40;99.90
23719;DHT22;43322;52.230;5.702;2024-03-25T14:50:55;15.60;99.90
23719;DHT22;43322;52.230;5.702;2024-03-25T14:53:23;15.90;99.90
23719;DHT22;43322;52.230;5.702;2024-03-25T14:55:49;15.70;99.90
23719;DHT22;43322;52.230;5.702;2024-03-25T14:58:15;15.80;99.90
23719;DHT22;43322;52.230;5.702;2024-03-25T15:00:40;16.00;99.90
23719;DHT22;43322;52.230;5.702;2024-03-25T15:03:06;16.00;99.90
23719;DHT22;43322;52.230;5.702;2024-03-25T15:05:32;15.90;99.90
23719;DHT22;43322;52.230;5.702;2024-03-25T15:07:58;15.80;99.90
23719;DHT22;43322;52.230;5.702;2024-03-25T15:10:26;15.60;99.90
23719;DHT22;43322;52.230;5.702;2024-03-25T15:12:52;15.70;99.90
23719;DHT22;43322;52.230;5.702;2024-03-25T15:15:18;16.00;99.90
23719;DHT22;43322;52.230;5.702;2024-03-25T15:17:44;16.20;99.90
23719;DHT22;43322;52.230;5.702;2024-03-25T15:20:11;16.30;99.90
23719;DHT22;43322;52.230;5.702;2024-03-25T15:22:37;16.10;99.90
23719;DHT22;43322;52.230;5.702;2024-03-25T15:25:03;16.20;99.90
23719;DHT22;43322;52.230;5.702;2024-03-25T15:27:31;16.30;99.90
23719;DHT22;43322;52.230;5.702;2024-03-25T15:29:57;16.50;99.90
23719;DHT22;43322;52.230;5.702;2024-03-25T15:32:23;16.30;99.90
23719;DHT22;43322;52.230;5.702;2024-03-25T15:34:49;16.30;99.90
23719;DHT22;43322;52.230;5.702;2024-03-25T15:37:14;16.50;99.90
23719;DHT22;43322;52.230;5.702;2024-03-25T15:39:41;16.50;99.90
23719;DHT22;43322;52.230;5.702;2024-03-25T15:42:06;16.50;99.90